sensor_id;sensor_type;location;lat;lon;timestamp;temperature;humidity
10848;DHT22;5477;48.806;9.154;2024-03-23T00:52:10;11.00;99.90
10848;DHT22;5477;48.806;9.154;2024-03-23T00:54:36;11.10;99.90
10848;DHT22;5477;48.806;9.154;2024-03-23T00:57:03;11.10;99.90
10848;DHT22;5477;48.806;9.154;2024-03-23T00:59:29;11.20;99.90
10848;DHT22;5477;48.806;9.154;2024-03-23T01:01:56;11.30;99.90
10848;DHT22;5477;48.806;9.154;2024-03-23T01:04:22;11.30;99.90
10848;DHT22;5477;48.806;9.154;2024-03-23T01:06:50;11.40;99.90
10848;DHT22;5477;48.806;9.154;2024-03-23T01:09:17;11.40;99.90
10848;DHT22;5477;48.806;9.154;2024-03-23T01:11:44;11.60;99.90
10848;DHT22;5477;48.806;9.154;2024-03-23T01:14:11;11.60;99.90
10848;DHT22;5477;48.806;9.154;2024-03-23T01:16:37;11.70;99.90
10848;DHT22;5477;48.806;9.154;2024-03-23T01:19:05;11.70;99.90
10848;DHT22;5477;48.806;9.154;2024-03-23T01:21:32;11.80;99.90
10848;DHT22;5477;48.806;9.154;2024-03-23T01:23:59;11.70;99.90
10848;DHT22;5477;48.806;9.154;2024-03-23T01:26:26;11.70;99.90
10848;DHT22;5477;48.806;9.154;2024-03-23T01:28:53;11.70;99.90
10848;DHT22;5477;48.806;9.154;2024-03-23T01:31:19;11.70;99.90
10848;DHT22;5477;48.806;9.154;2024-03-23T01:33:46;11.70;99.90
10848;DHT22;5477;48.806;9.154;2024-03-23T01:36:13;11.70;99.90
10848;DHT22;5477;48.806;9.154;2024-03-23T01:38:40;11.80;99.90
10848;DHT22;5477;48.806;9.154;2024-03-23T01:41:06;11.80;99.90
10848;DHT22;5477;48.806;9.154;2024-03-23T01:43:34;11.80;99.90
10848;DHT22;5477;48.806;9.154;2024-03-23T01:46:01;11.80;99.90
10848;DHT22;5477;48.806;9.154;2024-03-23T01:48:28;11.90;99.90
10848;DHT22;5477;48.806;9.154;2024-03-23T01:50:54;11.90;99.90
10848;DHT22;5477;48.806;9.154;2024-03-23T01:53:21;11.90;99.90
10848;DHT22;5477;48.806;9.154;2024-03-23T01:55:50;11.90;99.90
10848;DHT22;5477;48.806;9.154;2024-03-23T01:58:17;12.00;99.90
10848;DHT22;5477;48.806;9.154;2024-03-23T02:00:44;11.90;99.90
10848;DHT22;5477;48.806;9.154;2024-03-23T02:03:24;12.00;99.90
10848;DHT22;5477;48.806;9.154;2024-03-23T02:05:52;11.90;99.90
10848;DHT22;5477;48.806;9.154;2024-03-23T02:08:21;12.00;99.90
10848;DHT22;5477;48.806;9.154;2024-03-23T02:10:47;12.00;99.90
10848;DHT22;5477;48.806;9.154;2024-03-23T02:13:15;11.90;99.90
10848;DHT22;5477;48.806;9.154;2024-03-23T02:15:41;12.00;99.90
10848;DHT22;5477;48.806;9.154;2024-03-23T02:18:10;11.90;99.90
10848;DHT22;5477;48.806;9.154;2024-03-23T02:20:36;11.90;99.90
10848;DHT22;5477;48.806;9.154;2024-03-23T02:23:05;11.90;99.90
10848;DHT22;5477;48.806;9.154;2024-03-23T02:25:32;11.90;99.90
10848;DHT22;5477;48.806;9.154;2024-03-23T02:27:59;11.90;99.90
10848;DHT22;5477;48.806;9.154;2024-03-23T02:30:26;11.90;99.90
10848;DHT22;5477;48.806;9.154;2024-03-23T02:32:53;11.90;99.90
10848;DHT22;5477;48.806;9.154;2024-03-23T02:35:19;11.90;99.90
10848;DHT22;5477;48.806;9.154;2024-03-23T02:37:46;11.90;99.90
10848;DHT22;5477;48.806;9.154;2024-03-23T02:40:15;11.90;99.90
10848;DHT22;5477;48.806;9.154;2024-03-23T02:42:42;11.90;99.90
10848;DHT22;5477;48.806;9.154;2024-03-23T02:45:09;11.90;99.90
10848;DHT22;5477;48.806;9.154;2024-03-23T02:47:36;11.90;99.90
10848;DHT22;5477;48.806;9.154;2024-03-23T02:50:02;11.90;99.90
10848;DHT22;5477;48.806;9.154;2024-03-23T02:52:30;11.90;99.90
10848;DHT22;5477;48.806;9.154;2024-03-23T02:54:56;11.80;99.90
10848;DHT22;5477;48.806;9.154;2024-03-23T02:57:25;11.90;99.90
10848;DHT22;5477;48.806;9.154;2024-03-23T02:59:51;11.80;99.90
10848;DHT22;5477;48.806;9.154;2024-03-23T03:02:18;11.90;99.90
10848;DHT22;5477;48.806;9.154;2024-03-23T03:04:44;11.90;99.90
10848;DHT22;5477;48.806;9.154;2024-03-23T03:07:11;11.90;99.90
10848;DHT22;5477;48.806;9.154;2024-03-23T03:09:37;11.90;99.90
10848;DHT22;5477;48.806;9.154;2024-03-23T03:12:05;11.90;99.90
10848;DHT22;5477;48.806;9.154;2024-03-23T03:14:32;11.90;99.90
10848;DHT22;5477;48.806;9.154;2024-03-23T03:16:59;12.00;99.90
10848;DHT22;5477;48.806;9.154;2024-03-23T03:19:26;11.90;99.90
10848;DHT22;5477;48.806;9.154;2024-03-23T03:21:53;11.90;99.90
10848;DHT22;5477;48.806;9.154;2024-03-23T03:24:19;11.80;99.90
10848;DHT22;5477;48.806;9.154;2024-03-23T03:26:46;11.80;99.90
10848;DHT22;5477;48.806;9.154;2024-03-23T03:29:12;11.70;99.90
10848;DHT22;5477;48.806;9.154;2024-03-23T03:31:41;11.60;99.90
10848;DHT22;5477;48.806;9.154;2024-03-23T03:34:07;11.60;99.90
10848;DHT22;5477;48.806;9.154;2024-03-23T03:36:34;11.60;99.90
10848;DHT22;5477;48.806;9.154;2024-03-23T03:39:00;11.50;99.90
10848;DHT22;5477;48.806;9.154;2024-03-23T03:41:28;11.50;99.90
10848;DHT22;5477;48.806;9.154;2024-03-23T03:43:55;11.50;99.90
10848;DHT22;5477;48.806;9.154;2024-03-23T03:46:22;11.50;99.90
10848;DHT22;5477;48.806;9.154;2024-03-23T03:48:50;11.40;99.90
10848;DHT22;5477;48.806;9.154;2024-03-23T03:51:17;11.50;99.90
10848;DHT22;5477;48.806;9.154;2024-03-23T03:53:43;11.40;99.90
10848;DHT22;5477;48.806;9.154;2024-03-23T03:56:10;11.50;99.90
10848;DHT22;5477;48.806;9.154;2024-03-23T03:58:36;11.40;99.90
10848;DHT22;5477;48.806;9.154;2024-03-23T04:01:03;11.40;99.90
10848;DHT22;5477;48.806;9.154;2024-03-23T04:03:30;11.40;99.90
10848;DHT22;5477;48.806;9.154;2024-03-23T04:05:58;11.40;99.90
10848;DHT22;5477;48.806;9.154;2024-03-23T04:08:25;11.30;99.90
10848;DHT22;5477;48.806;9.154;2024-03-23T04:10:52;11.40;99.90
10848;DHT22;5477;48.806;9.154;2024-03-23T04:13:18;11.40;99.90
10848;DHT22;5477;48.806;9.154;2024-03-23T04:15:45;11.40;99.90
10848;DHT22;5477;48.806;9.154;2024-03-23T04:18:11;11.40;99.90
10848;DHT22;5477;48.806;9.154;2024-03-23T04:20:38;11.40;99.90
10848;DHT22;5477;48.806;9.154;2024-03-23T04:23:06;11.50;99.90
10848;DHT22;5477;48.806;9.154;2024-03-23T04:25:32;11.50;99.90
10848;DHT22;5477;48.806;9.154;2024-03-23T04:27:59;11.60;99.90
10848;DHT22;5477;48.806;9.154;2024-03-23T04:30:26;11.70;99.90
10848;DHT22;5477;48.806;9.154;2024-03-23T04:32:55;11.80;99.90
10848;DHT22;5477;48.806;9.154;2024-03-23T04:35:22;12.00;99.90
10848;DHT22;5477;48.806;9.154;2024-03-23T04:37:51;11.70;99.90
10848;DHT22;5477;48.806;9.154;2024-03-23T04:40:20;11.40;99.90
10848;DHT22;5477;48.806;9.154;2024-03-23T04:42:47;11.20;99.90
10848;DHT22;5477;48.806;9.154;2024-03-23T04:45:14;11.10;99.90
10848;DHT22;5477;48.806;9.154;2024-03-23T04:47:41;11.10;99.90
10848;DHT22;5477;48.806;9.154;2024-03-23T04:50:09;11.10;99.90
10848;DHT22;5477;48.806;9.154;2024-03-23T04:52:37;11.10;99.90
10848;DHT22;5477;48.806;9.154;2024-03-23T04:55:04;11.10;99.90
10848;DHT22;5477;48.806;9.154;2024-03-23T04:57:32;11.10;99.90
10848;DHT22;5477;48.806;9.154;2024-03-23T04:59:59;11.10;99.90
10848;DHT22;5477;48.806;9.154;2024-03-23T05:02:25;11.00;99.90
10848;DHT22;5477;48.806;9.154;2024-03-23T05:04:53;10.90;99.90
10848;DHT22;5477;48.806;9.154;2024-03-23T05:07:19;10.90;99.90
10848;DHT22;5477;48.806;9.154;2024-03-23T05:09:46;10.80;99.90
10848;DHT22;5477;48.806;9.154;2024-03-23T05:12:15;10.80;99.90
10848;DHT22;5477;48.806;9.154;2024-03-23T05:14:43;10.80;99.90
10848;DHT22;5477;48.806;9.154;2024-03-23T05:17:09;10.80;99.90
10848;DHT22;5477;48.806;9.154;2024-03-23T05:19:36;10.70;99.90
10848;DHT22;5477;48.806;9.154;2024-03-23T05:22:02;10.70;99.90
10848;DHT22;5477;48.806;9.154;2024-03-23T05:24:29;10.70;99.90
10848;DHT22;5477;48.806;9.154;2024-03-23T05:26:55;10.60;99.90
10848;DHT22;5477;48.806;9.154;2024-03-23T05:29:25;10.60;99.90
10848;DHT22;5477;48.806;9.154;2024-03-23T05:31:52;10.60;99.90
10848;DHT22;5477;48.806;9.154;2024-03-23T05:34:22;10.60;99.90
10848;DHT22;5477;48.806;9.154;2024-03-23T05:36:48;10.50;99.90
10848;DHT22;5477;48.806;9.154;2024-03-23T05:39:16;10.40;99.90
10848;DHT22;5477;48.806;9.154;2024-03-23T05:41:42;10.30;99.90
10848;DHT22;5477;48.806;9.154;2024-03-23T05:44:09;10.30;99.90
10848;DHT22;5477;48.806;9.154;2024-03-23T05:46:36;10.30;99.90
10848;DHT22;5477;48.806;9.154;2024-03-23T05:49:05;10.30;99.90
10848;DHT22;5477;48.806;9.154;2024-03-23T05:51:31;10.20;99.90
10848;DHT22;5477;48.806;9.154;2024-03-23T05:53:58;10.10;99.90
10848;DHT22;5477;48.806;9.154;2024-03-23T05:56:25;10.10;99.90
10848;DHT22;5477;48.806;9.154;2024-03-23T05:58:52;10.00;99.90
10848;DHT22;5477;48.806;9.154;2024-03-23T06:01:18;9.90;99.90
10848;DHT22;5477;48.806;9.154;2024-03-23T06:03:45;9.90;99.90
10848;DHT22;5477;48.806;9.154;2024-03-23T06:06:12;9.80;99.90
10848;DHT22;5477;48.806;9.154;2024-03-23T06:08:40;9.70;99.90
10848;DHT22;5477;48.806;9.154;2024-03-23T06:11:06;9.70;99.90
10848;DHT22;5477;48.806;9.154;2024-03-23T06:13:33;9.70;99.90
10848;DHT22;5477;48.806;9.154;2024-03-23T06:16:00;9.70;99.90
10848;DHT22;5477;48.806;9.154;2024-03-23T06:18:27;9.60;99.90
10848;DHT22;5477;48.806;9.154;2024-03-23T06:20:53;9.60;99.90
10848;DHT22;5477;48.806;9.154;2024-03-23T06:23:22;9.60;99.90
10848;DHT22;5477;48.806;9.154;2024-03-23T06:25:48;9.50;99.90
10848;DHT22;5477;48.806;9.154;2024-03-23T06:28:15;9.60;99.90
10848;DHT22;5477;48.806;9.154;2024-03-23T06:30:42;9.50;99.90
10848;DHT22;5477;48.806;9.154;2024-03-23T06:33:09;9.60;99.90
10848;DHT22;5477;48.806;9.154;2024-03-23T06:35:35;9.60;99.90
10848;DHT22;5477;48.806;9.154;2024-03-23T06:38:02;9.60;99.90
10848;DHT22;5477;48.806;9.154;2024-03-23T06:40:30;9.60;99.90
10848;DHT22;5477;48.806;9.154;2024-03-23T06:42:57;9.60;99.90
10848;DHT22;5477;48.806;9.154;2024-03-23T06:45:23;9.50;99.90
10848;DHT22;5477;48.806;9.154;2024-03-23T06:47:50;9.50;99.90
10848;DHT22;5477;48.806;9.154;2024-03-23T06:50:16;9.40;99.90
10848;DHT22;5477;48.806;9.154;2024-03-23T06:52:43;9.40;99.90
10848;DHT22;5477;48.806;9.154;2024-03-23T06:55:09;9.40;99.90
10848;DHT22;5477;48.806;9.154;2024-03-23T06:57:37;9.40;99.90
10848;DHT22;5477;48.806;9.154;2024-03-23T07:00:04;9.40;99.90
10848;DHT22;5477;48.806;9.154;2024-03-23T07:02:35;9.30;99.90
10848;DHT22;5477;48.806;9.154;2024-03-23T07:05:02;9.30;99.90
10848;DHT22;5477;48.806;9.154;2024-03-23T07:07:29;9.30;99.90
10848;DHT22;5477;48.806;9.154;2024-03-23T07:09:56;9.30;99.90
10848;DHT22;5477;48.806;9.154;2024-03-23T07:12:23;9.30;99.90
10848;DHT22;5477;48.806;9.154;2024-03-23T07:14:50;9.30;99.90
10848;DHT22;5477;48.806;9.154;2024-03-23T07:17:18;9.40;99.90
10848;DHT22;5477;48.806;9.154;2024-03-23T07:19:44;9.30;99.90
10848;DHT22;5477;48.806;9.154;2024-03-23T07:22:11;9.30;99.90
10848;DHT22;5477;48.806;9.154;2024-03-23T07:24:38;9.40;99.90
10848;DHT22;5477;48.806;9.154;2024-03-23T07:27:05;9.60;99.90
10848;DHT22;5477;48.806;9.154;2024-03-23T07:29:36;9.70;99.90
10848;DHT22;5477;48.806;9.154;2024-03-23T07:32:05;9.80;99.90
10848;DHT22;5477;48.806;9.154;2024-03-23T07:34:31;9.70;99.90
10848;DHT22;5477;48.806;9.154;2024-03-23T07:36:58;9.60;99.90
10848;DHT22;5477;48.806;9.154;2024-03-23T07:39:24;9.40;99.90
10848;DHT22;5477;48.806;9.154;2024-03-23T07:41:53;9.30;99.90
10848;DHT22;5477;48.806;9.154;2024-03-23T07:44:19;9.10;99.90
10848;DHT22;5477;48.806;9.154;2024-03-23T07:46:46;9.10;99.90
10848;DHT22;5477;48.806;9.154;2024-03-23T07:49:14;9.00;99.90
10848;DHT22;5477;48.806;9.154;2024-03-23T07:51:41;8.90;99.90
10848;DHT22;5477;48.806;9.154;2024-03-23T07:54:07;8.80;99.90
10848;DHT22;5477;48.806;9.154;2024-03-23T07:56:34;8.70;99.90
10848;DHT22;5477;48.806;9.154;2024-03-23T07:59:00;8.50;99.90
10848;DHT22;5477;48.806;9.154;2024-03-23T08:01:29;8.50;99.90
10848;DHT22;5477;48.806;9.154;2024-03-23T08:03:55;8.50;99.90
10848;DHT22;5477;48.806;9.154;2024-03-23T08:06:23;8.40;99.90
10848;DHT22;5477;48.806;9.154;2024-03-23T08:08:52;8.40;99.90
10848;DHT22;5477;48.806;9.154;2024-03-23T08:11:25;8.30;99.90
10848;DHT22;5477;48.806;9.154;2024-03-23T08:13:53;8.40;99.90
10848;DHT22;5477;48.806;9.154;2024-03-23T08:16:19;8.40;99.90
10848;DHT22;5477;48.806;9.154;2024-03-23T08:18:46;8.50;99.90
10848;DHT22;5477;48.806;9.154;2024-03-23T08:21:12;8.50;99.90
10848;DHT22;5477;48.806;9.154;2024-03-23T08:23:41;8.50;99.90
10848;DHT22;5477;48.806;9.154;2024-03-23T08:26:09;8.60;99.90
10848;DHT22;5477;48.806;9.154;2024-03-23T08:28:36;8.70;99.90
10848;DHT22;5477;48.806;9.154;2024-03-23T08:31:04;8.70;99.90
10848;DHT22;5477;48.806;9.154;2024-03-23T08:33:31;8.60;99.90
10848;DHT22;5477;48.806;9.154;2024-03-23T08:35:59;8.60;99.90
10848;DHT22;5477;48.806;9.154;2024-03-23T08:38:27;8.40;99.90
10848;DHT22;5477;48.806;9.154;2024-03-23T08:40:59;8.30;99.90
10848;DHT22;5477;48.806;9.154;2024-03-23T08:43:26;8.20;99.90
10848;DHT22;5477;48.806;9.154;2024-03-23T08:45:53;8.10;99.90
10848;DHT22;5477;48.806;9.154;2024-03-23T08:48:20;8.20;99.90
10848;DHT22;5477;48.806;9.154;2024-03-23T08:50:47;8.20;99.90
10848;DHT22;5477;48.806;9.154;2024-03-23T08:53:23;8.30;99.90
10848;DHT22;5477;48.806;9.154;2024-03-23T08:55:53;8.40;99.90
10848;DHT22;5477;48.806;9.154;2024-03-23T08:58:20;8.20;99.90
10848;DHT22;5477;48.806;9.154;2024-03-23T09:00:48;8.10;99.90
10848;DHT22;5477;48.806;9.154;2024-03-23T09:03:15;8.20;99.90
10848;DHT22;5477;48.806;9.154;2024-03-23T09:05:42;8.20;99.90
10848;DHT22;5477;48.806;9.154;2024-03-23T09:08:08;8.30;99.90
10848;DHT22;5477;48.806;9.154;2024-03-23T09:10:38;8.40;99.90
10848;DHT22;5477;48.806;9.154;2024-03-23T09:13:05;8.40;99.90
10848;DHT22;5477;48.806;9.154;2024-03-23T09:15:34;8.40;99.90
10848;DHT22;5477;48.806;9.154;2024-03-23T09:18:01;8.30;99.90
10848;DHT22;5477;48.806;9.154;2024-03-23T09:20:28;8.40;99.90
10848;DHT22;5477;48.806;9.154;2024-03-23T09:22:55;8.50;99.90
10848;DHT22;5477;48.806;9.154;2024-03-23T09:25:22;8.70;99.90
10848;DHT22;5477;48.806;9.154;2024-03-23T09:27:53;8.80;99.90
10848;DHT22;5477;48.806;9.154;2024-03-23T09:30:24;8.90;99.90
10848;DHT22;5477;48.806;9.154;2024-03-23T09:32:51;9.00;99.90
10848;DHT22;5477;48.806;9.154;2024-03-23T09:35:18;9.20;99.90
10848;DHT22;5477;48.806;9.154;2024-03-23T09:37:45;9.30;99.90
10848;DHT22;5477;48.806;9.154;2024-03-23T09:42:55;9.90;99.90
10848;DHT22;5477;48.806;9.154;2024-03-23T09:45:28;10.20;99.90
10848;DHT22;5477;48.806;9.154;2024-03-23T09:47:56;10.40;99.90
10848;DHT22;5477;48.806;9.154;2024-03-23T09:50:24;10.50;99.90
10848;DHT22;5477;48.806;9.154;2024-03-23T09:52:51;10.50;99.90
10848;DHT22;5477;48.806;9.154;2024-03-23T09:55:22;10.40;99.90
10848;DHT22;5477;48.806;9.154;2024-03-23T09:57:50;10.10;99.90
10848;DHT22;5477;48.806;9.154;2024-03-23T10:00:21;10.10;99.90
10848;DHT22;5477;48.806;9.154;2024-03-23T10:02:48;10.20;99.90
10848;DHT22;5477;48.806;9.154;2024-03-23T10:05:25;10.20;99.90
10848;DHT22;5477;48.806;9.154;2024-03-23T10:07:53;10.10;99.90
10848;DHT22;5477;48.806;9.154;2024-03-23T10:10:20;10.10;99.90
10848;DHT22;5477;48.806;9.154;2024-03-23T10:12:51;10.30;99.90
10848;DHT22;5477;48.806;9.154;2024-03-23T10:15:19;10.70;99.90
10848;DHT22;5477;48.806;9.154;2024-03-23T10:17:46;10.90;99.90
10848;DHT22;5477;48.806;9.154;2024-03-23T10:20:23;10.40;99.90
10848;DHT22;5477;48.806;9.154;2024-03-23T10:23:03;10.10;99.90
10848;DHT22;5477;48.806;9.154;2024-03-23T10:25:30;10.30;99.90
10848;DHT22;5477;48.806;9.154;2024-03-23T10:27:59;10.50;99.90
10848;DHT22;5477;48.806;9.154;2024-03-23T10:30:26;10.50;99.90
10848;DHT22;5477;48.806;9.154;2024-03-23T10:33:06;10.60;99.90
10848;DHT22;5477;48.806;9.154;2024-03-23T10:35:36;10.70;99.90
10848;DHT22;5477;48.806;9.154;2024-03-23T10:38:05;10.80;99.90
10848;DHT22;5477;48.806;9.154;2024-03-23T10:40:34;11.10;99.90
10848;DHT22;5477;48.806;9.154;2024-03-23T10:43:00;11.00;99.90
10848;DHT22;5477;48.806;9.154;2024-03-23T10:45:29;10.90;99.90
10848;DHT22;5477;48.806;9.154;2024-03-23T10:47:56;10.80;99.90
10848;DHT22;5477;48.806;9.154;2024-03-23T10:50:23;10.50;99.90
10848;DHT22;5477;48.806;9.154;2024-03-23T10:52:53;10.20;99.90
10848;DHT22;5477;48.806;9.154;2024-03-23T10:55:23;9.60;99.90
10848;DHT22;5477;48.806;9.154;2024-03-23T10:57:51;8.80;99.90
10848;DHT22;5477;48.806;9.154;2024-03-23T11:00:20;8.30;99.90
10848;DHT22;5477;48.806;9.154;2024-03-23T11:02:47;8.10;99.90
10848;DHT22;5477;48.806;9.154;2024-03-23T11:05:30;7.70;99.90
10848;DHT22;5477;48.806;9.154;2024-03-23T11:07:58;7.20;99.90
10848;DHT22;5477;48.806;9.154;2024-03-23T11:10:26;6.80;99.90
10848;DHT22;5477;48.806;9.154;2024-03-23T11:12:53;6.50;99.90
10848;DHT22;5477;48.806;9.154;2024-03-23T11:15:20;6.50;99.90
10848;DHT22;5477;48.806;9.154;2024-03-23T11:18:04;6.70;99.90
10848;DHT22;5477;48.806;9.154;2024-03-23T11:20:34;7.00;99.90
10848;DHT22;5477;48.806;9.154;2024-03-23T11:23:02;7.00;99.90
10848;DHT22;5477;48.806;9.154;2024-03-23T11:25:29;7.50;99.90
10848;DHT22;5477;48.806;9.154;2024-03-23T11:27:57;8.20;99.90
10848;DHT22;5477;48.806;9.154;2024-03-23T11:30:25;8.80;99.90
10848;DHT22;5477;48.806;9.154;2024-03-23T11:32:54;9.60;99.90
10848;DHT22;5477;48.806;9.154;2024-03-23T11:35:28;10.10;99.90
10848;DHT22;5477;48.806;9.154;2024-03-23T11:38:07;10.10;99.90
10848;DHT22;5477;48.806;9.154;2024-03-23T11:40:35;10.00;99.90
10848;DHT22;5477;48.806;9.154;2024-03-23T11:43:03;10.50;99.90
10848;DHT22;5477;48.806;9.154;2024-03-23T11:45:35;10.80;99.90
10848;DHT22;5477;48.806;9.154;2024-03-23T11:48:06;10.80;99.90
10848;DHT22;5477;48.806;9.154;2024-03-23T11:50:34;10.90;99.90
10848;DHT22;5477;48.806;9.154;2024-03-23T11:53:13;10.70;99.90
10848;DHT22;5477;48.806;9.154;2024-03-23T11:55:45;10.50;99.90
10848;DHT22;5477;48.806;9.154;2024-03-23T11:58:12;10.10;99.90
10848;DHT22;5477;48.806;9.154;2024-03-23T12:00:39;9.70;99.90
10848;DHT22;5477;48.806;9.154;2024-03-23T12:03:06;9.60;99.90
10848;DHT22;5477;48.806;9.154;2024-03-23T12:05:34;9.70;99.90
10848;DHT22;5477;48.806;9.154;2024-03-23T12:08:19;9.90;99.90
10848;DHT22;5477;48.806;9.154;2024-03-23T12:10:48;9.70;99.90
10848;DHT22;5477;48.806;9.154;2024-03-23T12:13:19;9.70;99.90
10848;DHT22;5477;48.806;9.154;2024-03-23T12:15:47;9.90;99.90
10848;DHT22;5477;48.806;9.154;2024-03-23T12:18:13;10.40;99.90
10848;DHT22;5477;48.806;9.154;2024-03-23T12:20:41;10.80;99.90
10848;DHT22;5477;48.806;9.154;2024-03-23T12:23:08;10.90;99.90
10848;DHT22;5477;48.806;9.154;2024-03-23T12:25:40;11.40;99.90
10848;DHT22;5477;48.806;9.154;2024-03-23T12:28:08;11.90;99.90
10848;DHT22;5477;48.806;9.154;2024-03-23T12:30:36;11.50;99.90
10848;DHT22;5477;48.806;9.154;2024-03-23T12:33:04;11.00;99.90
10848;DHT22;5477;48.806;9.154;2024-03-23T12:35:32;11.20;99.90
10848;DHT22;5477;48.806;9.154;2024-03-23T12:37:59;11.20;99.90
10848;DHT22;5477;48.806;9.154;2024-03-23T12:40:26;10.70;99.90
10848;DHT22;5477;48.806;9.154;2024-03-23T12:42:54;10.50;99.90
10848;DHT22;5477;48.806;9.154;2024-03-23T12:45:21;10.30;99.90
10848;DHT22;5477;48.806;9.154;2024-03-23T12:47:48;10.20;99.90
10848;DHT22;5477;48.806;9.154;2024-03-23T12:50:15;10.00;99.90
10848;DHT22;5477;48.806;9.154;2024-03-23T12:52:41;9.90;99.90
10848;DHT22;5477;48.806;9.154;2024-03-23T12:55:09;9.80;99.90
10848;DHT22;5477;48.806;9.154;2024-03-23T12:57:35;10.10;99.90
10848;DHT22;5477;48.806;9.154;2024-03-23T13:00:05;10.80;99.90
10848;DHT22;5477;48.806;9.154;2024-03-23T13:02:32;11.60;99.90
10848;DHT22;5477;48.806;9.154;2024-03-23T13:05:00;12.60;99.90
10848;DHT22;5477;48.806;9.154;2024-03-23T13:07:27;13.00;98.70
10848;DHT22;5477;48.806;9.154;2024-03-23T13:09:54;12.60;98.10
10848;DHT22;5477;48.806;9.154;2024-03-23T13:12:22;12.60;97.40
10848;DHT22;5477;48.806;9.154;2024-03-23T13:14:49;12.70;97.40
10848;DHT22;5477;48.806;9.154;2024-03-23T13:17:16;12.80;97.10
10848;DHT22;5477;48.806;9.154;2024-03-23T13:19:44;12.70;95.80
10848;DHT22;5477;48.806;9.154;2024-03-23T13:22:10;12.40;95.70
10848;DHT22;5477;48.806;9.154;2024-03-23T13:24:37;12.40;96.90
10848;DHT22;5477;48.806;9.154;2024-03-23T13:27:04;12.30;95.50
10848;DHT22;5477;48.806;9.154;2024-03-23T13:29:33;11.90;95.30
10848;DHT22;5477;48.806;9.154;2024-03-23T13:32:00;11.50;97.20
10848;DHT22;5477;48.806;9.154;2024-03-23T13:34:28;11.60;96.50
10848;DHT22;5477;48.806;9.154;2024-03-23T13:36:55;11.80;94.50
10848;DHT22;5477;48.806;9.154;2024-03-23T13:39:24;11.60;93.40
10848;DHT22;5477;48.806;9.154;2024-03-23T13:41:50;11.70;93.80
10848;DHT22;5477;48.806;9.154;2024-03-23T13:44:17;12.50;93.20
10848;DHT22;5477;48.806;9.154;2024-03-23T13:46:43;13.20;92.10
10848;DHT22;5477;48.806;9.154;2024-03-23T13:49:24;13.30;90.40
10848;DHT22;5477;48.806;9.154;2024-03-23T13:51:52;13.80;90.10
10848;DHT22;5477;48.806;9.154;2024-03-23T13:54:19;14.20;87.20
10848;DHT22;5477;48.806;9.154;2024-03-23T13:56:45;14.20;85.80
10848;DHT22;5477;48.806;9.154;2024-03-23T13:59:13;14.10;85.80
10848;DHT22;5477;48.806;9.154;2024-03-23T14:01:39;13.20;89.10
10848;DHT22;5477;48.806;9.154;2024-03-23T14:04:06;12.20;96.00
10848;DHT22;5477;48.806;9.154;2024-03-23T14:06:32;11.00;99.90
10848;DHT22;5477;48.806;9.154;2024-03-23T14:09:01;9.60;99.90
10848;DHT22;5477;48.806;9.154;2024-03-23T14:11:29;8.70;99.90
10848;DHT22;5477;48.806;9.154;2024-03-23T14:13:56;8.00;99.90
10848;DHT22;5477;48.806;9.154;2024-03-23T14:16:22;7.60;99.90
10848;DHT22;5477;48.806;9.154;2024-03-23T14:18:49;7.30;99.90
10848;DHT22;5477;48.806;9.154;2024-03-23T14:21:17;6.60;99.90
10848;DHT22;5477;48.806;9.154;2024-03-23T14:23:44;6.20;99.90
10848;DHT22;5477;48.806;9.154;2024-03-23T14:26:12;6.00;99.90
10848;DHT22;5477;48.806;9.154;2024-03-23T14:28:39;5.90;99.90
10848;DHT22;5477;48.806;9.154;2024-03-23T14:31:05;6.10;99.90
10848;DHT22;5477;48.806;9.154;2024-03-23T14:33:36;7.00;99.90
10848;DHT22;5477;48.806;9.154;2024-03-23T14:36:04;7.80;99.90
10848;DHT22;5477;48.806;9.154;2024-03-23T14:38:31;9.00;99.90
10848;DHT22;5477;48.806;9.154;2024-03-23T14:40:58;9.90;99.90
10848;DHT22;5477;48.806;9.154;2024-03-23T14:43:27;10.60;99.90
10848;DHT22;5477;48.806;9.154;2024-03-23T14:46:06;10.80;99.90
10848;DHT22;5477;48.806;9.154;2024-03-23T14:48:34;11.30;99.90
10848;DHT22;5477;48.806;9.154;2024-03-23T14:51:00;11.40;99.90
10848;DHT22;5477;48.806;9.154;2024-03-23T14:53:30;11.10;99.90
10848;DHT22;5477;48.806;9.154;2024-03-23T14:55:56;10.30;99.90
10848;DHT22;5477;48.806;9.154;2024-03-23T14:58:23;9.60;99.90
10848;DHT22;5477;48.806;9.154;2024-03-23T15:00:52;9.10;99.90
10848;DHT22;5477;48.806;9.154;2024-03-23T15:03:18;8.80;99.90
10848;DHT22;5477;48.806;9.154;2024-03-23T15:05:53;8.40;99.90
10848;DHT22;5477;48.806;9.154;2024-03-23T15:08:19;8.50;99.90
10848;DHT22;5477;48.806;9.154;2024-03-23T15:10:46;8.40;99.90
10848;DHT22;5477;48.806;9.154;2024-03-23T15:13:12;8.50;99.90
10848;DHT22;5477;48.806;9.154;2024-03-23T15:15:40;9.10;99.90
10848;DHT22;5477;48.806;9.154;2024-03-23T15:18:11;9.80;99.90
10848;DHT22;5477;48.806;9.154;2024-03-23T15:20:38;9.40;99.90
10848;DHT22;5477;48.806;9.154;2024-03-23T15:23:05;9.60;99.90
10848;DHT22;5477;48.806;9.154;2024-03-23T15:25:32;9.50;99.90
10848;DHT22;5477;48.806;9.154;2024-03-23T15:27:58;9.20;99.90
10848;DHT22;5477;48.806;9.154;2024-03-23T15:30:26;9.00;99.90
10848;DHT22;5477;48.806;9.154;2024-03-23T15:32:52;8.90;99.90
10848;DHT22;5477;48.806;9.154;2024-03-23T15:35:20;8.80;99.90
10848;DHT22;5477;48.806;9.154;2024-03-23T15:37:48;8.80;99.90
10848;DHT22;5477;48.806;9.154;2024-03-23T15:40:16;8.80;99.90
10848;DHT22;5477;48.806;9.154;2024-03-23T15:42:42;8.80;99.90
10848;DHT22;5477;48.806;9.154;2024-03-23T15:45:09;8.80;99.90
10848;DHT22;5477;48.806;9.154;2024-03-23T15:47:35;8.80;99.90
10848;DHT22;5477;48.806;9.154;2024-03-23T15:50:03;8.70;99.90
10848;DHT22;5477;48.806;9.154;2024-03-23T15:52:35;8.70;99.90
10848;DHT22;5477;48.806;9.154;2024-03-23T15:55:03;8.70;99.90
10848;DHT22;5477;48.806;9.154;2024-03-23T15:57:33;8.70;99.90
10848;DHT22;5477;48.806;9.154;2024-03-23T16:00:00;8.70;99.90
10848;DHT22;5477;48.806;9.154;2024-03-23T16:02:26;8.70;99.90
10848;DHT22;5477;48.806;9.154;2024-03-23T16:04:54;8.70;99.90
10848;DHT22;5477;48.806;9.154;2024-03-23T16:07:20;8.80;99.90
10848;DHT22;5477;48.806;9.154;2024-03-23T16:09:49;8.90;99.90
10848;DHT22;5477;48.806;9.154;2024-03-23T16:12:15;9.00;99.90
10848;DHT22;5477;48.806;9.154;2024-03-23T16:14:43;9.00;99.90
10848;DHT22;5477;48.806;9.154;2024-03-23T16:17:09;8.90;99.90
10848;DHT22;5477;48.806;9.154;2024-03-23T16:19:36;8.80;99.90
10848;DHT22;5477;48.806;9.154;2024-03-23T16:22:02;8.80;99.90
10848;DHT22;5477;48.806;9.154;2024-03-23T16:24:30;8.70;99.90
10848;DHT22;5477;48.806;9.154;2024-03-23T16:26:57;8.70;99.90
10848;DHT22;5477;48.806;9.154;2024-03-23T16:29:24;8.70;99.90
10848;DHT22;5477;48.806;9.154;2024-03-23T16:31:50;8.60;99.90
10848;DHT22;5477;48.806;9.154;2024-03-23T16:34:17;8.50;99.90
10848;DHT22;5477;48.806;9.154;2024-03-23T16:36:43;8.50;99.90
10848;DHT22;5477;48.806;9.154;2024-03-23T16:39:10;8.40;99.90
10848;DHT22;5477;48.806;9.154;2024-03-23T16:41:36;8.30;99.90
10848;DHT22;5477;48.806;9.154;2024-03-23T16:44:05;8.30;99.90
10848;DHT22;5477;48.806;9.154;2024-03-23T16:46:32;8.20;99.90
10848;DHT22;5477;48.806;9.154;2024-03-23T16:48:58;8.10;99.90